Time;durP1;ratioP1;P1;durP2;ratioP2;P2;SDS_P1;SDS_P2;PMS_P1;PMS_P2;Temp;Humidity;BMP_temperature;BMP_pressure;BME280_temperature;BME280_humidity;BME280_pressure;Samples;Min_cycle;Max_cycle;Signal;HPM_P1;HPM_P2
2023/02/25 00:01:49;;;;;;;3.60;2.28;;;;;;;;;;4992359;28;20189;-43
2023/02/25 00:04:15;;;;;;;18.95;3.75;;;;;;;;;;4993687;28;20542;-45
2023/02/25 00:06:42;;;;;;;12.05;4.43;;;;;;;;;;4993402;28;20165;-43
2023/02/25 00:09:10;;;;;;;23.70;4.15;;;;;;;;;;4992828;28;20185;-43
2023/02/25 00:11:36;;;;;;;9.10;2.72;;;;;;;;;;4991954;28;20205;-43
2023/02/25 00:14:02;;;;;;;16.73;3.45;;;;;;;;;;4995202;28;20526;-43
2023/02/25 00:16:28;;;;;;;18.00;3.10;;;;;;;;;;4993261;28;20192;-43
2023/02/25 00:18:54;;;;;;;7.87;2.60;;;;;;;;;;4992760;28;20455;-43
2023/02/25 00:21:20;;;;;;;6.82;2.35;;;;;;;;;;4992036;28;20502;-43
2023/02/25 00:23:47;;;;;;;7.50;2.63;;;;;;;;;;4992235;28;20624;-43
2023/02/25 00:26:13;;;;;;;14.75;2.40;;;;;;;;;;4990785;28;20463;-44
2023/02/25 00:28:40;;;;;;;10.77;2.75;;;;;;;;;;4989217;28;20288;-44
2023/02/25 00:31:17;;;;;;;13.27;2.97;;;;;;;;;;4994155;28;20189;-44
2023/02/25 00:33:43;;;;;;;15.23;3.13;;;;;;;;;;4990782;28;20194;-45
2023/02/25 00:36:11;;;;;;;6.60;2.30;;;;;;;;;;4992578;28;20184;-42
2023/02/25 00:38:37;;;;;;;10.45;2.70;;;;;;;;;;4992026;28;20177;-43
2023/02/25 00:41:10;;;;;;;12.90;2.58;;;;;;;;;;4992371;28;20200;-45
2023/02/25 00:43:36;;;;;;;10.40;2.63;;;;;;;;;;4992341;28;20203;-45
2023/02/25 00:46:02;;;;;;;15.82;3.78;;;;;;;;;;4992878;28;20181;-46
2023/02/25 00:48:28;;;;;;;4.90;2.37;;;;;;;;;;4992581;28;20227;-45
2023/02/25 00:50:54;;;;;;;7.30;2.83;;;;;;;;;;4991856;28;20951;-46
2023/02/25 00:53:20;;;;;;;4.87;1.93;;;;;;;;;;4992314;28;20900;-46
2023/02/25 00:55:46;;;;;;;15.50;3.13;;;;;;;;;;4992143;28;20471;-45
2023/02/25 00:58:12;;;;;;;13.63;3.50;;;;;;;;;;4992324;28;20416;-46
2023/02/25 01:00:38;;;;;;;14.23;3.43;;;;;;;;;;4991451;28;20482;-45
2023/02/25 01:03:04;;;;;;;8.97;2.77;;;;;;;;;;4991990;28;20498;-46
2023/02/25 01:05:29;;;;;;;12.40;3.17;;;;;;;;;;4992274;28;20400;-45
2023/02/25 01:07:55;;;;;;;17.10;3.10;;;;;;;;;;4992110;28;20911;-44
2023/02/25 01:10:21;;;;;;;12.93;2.97;;;;;;;;;;4991328;28;20892;-43
2023/02/25 01:12:47;;;;;;;14.00;3.43;;;;;;;;;;4991837;28;20933;-44
2023/02/25 01:15:13;;;;;;;11.30;3.00;;;;;;;;;;4992405;28;20416;-44
2023/02/25 01:17:39;;;;;;;6.80;2.83;;;;;;;;;;4993650;28;20419;-43
2023/02/25 01:20:10;;;;;;;11.83;2.40;;;;;;;;;;4995357;28;20455;-44
2023/02/25 01:22:37;;;;;;;11.82;3.38;;;;;;;;;;4995682;28;20470;-44
2023/02/25 01:25:03;;;;;;;21.80;3.55;;;;;;;;;;4995970;28;20180;-44
2023/02/25 01:27:29;;;;;;;11.68;3.25;;;;;;;;;;4996029;28;20189;-43
2023/02/25 01:29:55;;;;;;;17.00;3.97;;;;;;;;;;4995903;28;20192;-45
2023/02/25 01:32:21;;;;;;;12.00;2.67;;;;;;;;;;4994948;28;20439;-45
2023/02/25 01:34:47;;;;;;;8.93;2.95;;;;;;;;;;4995644;28;20470;-45
2023/02/25 01:37:14;;;;;;;6.10;2.50;;;;;;;;;;4995650;28;20213;-45
2023/02/25 01:39:40;;;;;;;9.60;2.47;;;;;;;;;;4995650;28;20890;-45
2023/02/25 01:42:12;;;;;;;9.52;2.80;;;;;;;;;;4994907;28;20196;-46
2023/02/25 01:44:59;;;;;;;18.90;3.47;;;;;;;;;;4991994;28;20612;-45
2023/02/25 01:47:26;;;;;;;13.57;2.78;;;;;;;;;;4995700;28;20169;-45
2023/02/25 01:49:52;;;;;;;4.90;3.30;;;;;;;;;;4995430;28;20543;-45
2023/02/25 01:52:20;;;;;;;10.83;4.03;;;;;;;;;;4994652;28;20205;-45
2023/02/25 01:54:48;;;;;;;6.85;3.70;;;;;;;;;;4995438;28;20412;-45
2023/02/25 01:57:15;;;;;;;9.88;3.58;;;;;;;;;;4995469;28;20173;-44
2023/02/25 01:59:41;;;;;;;12.68;3.28;;;;;;;;;;4995485;28;20204;-45
2023/02/25 02:02:08;;;;;;;18.20;3.70;;;;;;;;;;4993410;28;20783;-44
2023/02/25 02:04:35;;;;;;;11.88;4.05;;;;;;;;;;4994878;28;20172;-44
2023/02/25 02:07:03;;;;;;;8.90;3.70;;;;;;;;;;4994966;28;20173;-44
2023/02/25 02:09:28;;;;;;;9.75;3.03;;;;;;;;;;4995134;28;20559;-44
2023/02/25 02:11:59;;;;;;;13.20;3.17;;;;;;;;;;4994218;28;20204;-44
2023/02/25 02:14:28;;;;;;;9.90;4.05;;;;;;;;;;4994820;28;20409;-44
2023/02/25 02:16:57;;;;;;;20.25;4.60;;;;;;;;;;4994909;28;20598;-44
2023/02/25 02:19:49;;;;;;;7.15;3.63;;;;;;;;;;4994954;28;20219;-44
2023/02/25 02:22:15;;;;;;;8.15;3.15;;;;;;;;;;4987036;28;20593;-44
2023/02/25 02:24:47;;;;;;;6.00;3.33;;;;;;;;;;4994892;28;20185;-44
2023/02/25 02:27:38;;;;;;;6.22;4.07;;;;;;;;;;4987476;28;20410;-44
2023/02/25 02:30:14;;;;;;;10.20;4.07;;;;;;;;;;4987991;28;20177;-44
2023/02/25 02:32:51;;;;;;;18.55;3.88;;;;;;;;;;4994590;28;20230;-44
2023/02/25 02:35:35;;;;;;;13.75;3.83;;;;;;;;;;4987603;28;20185;-44
2023/02/25 02:38:14;;;;;;;8.45;3.65;;;;;;;;;;4993824;28;20315;-43
2023/02/25 02:40:50;;;;;;;8.88;3.50;;;;;;;;;;4989977;28;20204;-43
2023/02/25 02:43:16;;;;;;;8.05;3.00;;;;;;;;;;4993158;28;20172;-43
2023/02/25 02:46:00;;;;;;;15.87;3.70;;;;;;;;;;4994476;28;20288;-43
2023/02/25 02:48:40;;;;;;;5.40;2.55;;;;;;;;;;4989692;28;20414;-44
2023/02/25 02:51:11;;;;;;;8.82;3.67;;;;;;;;;;4993601;28;20292;-44
2023/02/25 02:53:39;;;;;;;6.93;3.00;;;;;;;;;;4994534;28;20184;-43
2023/02/25 02:56:07;;;;;;;11.65;3.42;;;;;;;;;;4994247;28;20208;-43
2023/02/25 02:58:38;;;;;;;7.80;2.42;;;;;;;;;;4993958;28;20637;-42
2023/02/25 03:01:10;;;;;;;9.35;3.42;;;;;;;;;;4993334;28;20201;-43
2023/02/25 03:03:40;;;;;;;8.25;2.78;;;;;;;;;;4995455;28;20652;-43
2023/02/25 03:06:11;;;;;;;12.43;3.35;;;;;;;;;;4994355;28;20219;-42
2023/02/25 03:08:53;;;;;;;13.02;4.03;;;;;;;;;;4997787;28;20176;-45
2023/02/25 03:11:19;;;;;;;5.80;3.25;;;;;;;;;;4992205;28;20239;-43
2023/02/25 03:13:47;;;;;;;13.80;3.70;;;;;;;;;;5000739;28;20173;-42
2023/02/25 03:16:17;;;;;;;11.93;3.63;;;;;;;;;;4994559;28;20416;-45
2023/02/25 03:18:50;;;;;;;15.93;4.32;;;;;;;;;;4993812;28;20464;-43
2023/02/25 03:21:21;;;;;;;8.20;4.45;;;;;;;;;;4993018;28;20193;-43
2023/02/25 03:23:47;;;;;;;7.03;3.35;;;;;;;;;;4993183;28;20182;-41
2023/02/25 03:26:21;;;;;;;19.45;4.07;;;;;;;;;;4993668;28;20181;-42
2023/02/25 03:28:47;;;;;;;11.20;4.43;;;;;;;;;;4993452;28;20181;-42
2023/02/25 03:31:20;;;;;;;8.57;4.63;;;;;;;;;;4993026;28;20197;-44
2023/02/25 03:33:49;;;;;;;21.20;5.38;;;;;;;;;;4994303;28;20526;-42
2023/02/25 03:36:18;;;;;;;5.05;3.50;;;;;;;;;;4993946;28;20187;-43
2023/02/25 03:38:46;;;;;;;9.85;3.78;;;;;;;;;;4990001;28;20174;-42
2023/02/25 03:41:13;;;;;;;14.88;3.03;;;;;;;;;;4988514;28;20279;-43
2023/02/25 03:43:47;;;;;;;18.30;3.80;;;;;;;;;;4993689;28;20185;-45
2023/02/25 03:46:14;;;;;;;20.63;4.03;;;;;;;;;;4986596;28;20181;-45
2023/02/25 03:48:41;;;;;;;26.58;6.68;;;;;;;;;;4993627;28;20181;-44
2023/02/25 03:51:08;;;;;;;11.68;3.67;;;;;;;;;;4993246;28;20588;-45
2023/02/25 03:53:34;;;;;;;11.77;4.15;;;;;;;;;;4993758;28;20188;-45
2023/02/25 03:56:04;;;;;;;17.83;4.70;;;;;;;;;;4993860;28;20204;-46
2023/02/25 03:58:31;;;;;;;7.10;3.88;;;;;;;;;;4988412;28;20176;-45
2023/02/25 04:01:01;;;;;;;16.63;4.07;;;;;;;;;;4992501;28;20259;-45
2023/02/25 04:03:27;;;;;;;15.35;3.90;;;;;;;;;;4992820;28;20211;-44
2023/02/25 04:05:53;;;;;;;11.55;2.95;;;;;;;;;;4992905;28;20173;-44
2023/02/25 04:08:19;;;;;;;10.03;3.03;;;;;;;;;;4993372;28;20633;-44
2023/02/25 04:10:46;;;;;;;11.10;3.35;;;;;;;;;;4992057;28;20950;-44
2023/02/25 04:13:13;;;;;;;14.77;4.15;;;;;;;;;;4992669;28;20188;-44
2023/02/25 04:15:39;;;;;;;18.50;3.75;;;;;;;;;;4992761;28;20173;-44
2023/02/25 04:18:08;;;;;;;8.98;3.30;;;;;;;;;;4992907;28;20177;-44
2023/02/25 04:20:35;;;;;;;9.73;2.95;;;;;;;;;;4991820;28;20244;-44
2023/02/25 04:23:01;;;;;;;11.25;3.38;;;;;;;;;;4992452;28;20189;-44
2023/02/25 04:25:27;;;;;;;6.63;3.35;;;;;;;;;;4992747;28;20177;-44
2023/02/25 04:27:53;;;;;;;6.90;2.70;;;;;;;;;;4992621;28;20177;-44
2023/02/25 04:30:19;;;;;;;17.13;3.17;;;;;;;;;;4991730;28;20192;-44
2023/02/25 04:32:45;;;;;;;12.00;3.90;;;;;;;;;;4992426;28;20423;-44
2023/02/25 04:35:12;;;;;;;10.63;3.73;;;;;;;;;;4992555;28;20600;-44
2023/02/25 04:37:38;;;;;;;4.57;2.85;;;;;;;;;;4992537;28;20908;-44
2023/02/25 04:40:10;;;;;;;12.00;3.78;;;;;;;;;;4991712;28;20204;-44
2023/02/25 04:42:38;;;;;;;21.52;3.67;;;;;;;;;;4992206;28;20199;-44
2023/02/25 04:45:04;;;;;;;5.22;2.60;;;;;;;;;;4992444;28;20455;-44
2023/02/25 04:47:31;;;;;;;8.27;5.05;;;;;;;;;;4992405;28;20181;-44
2023/02/25 04:49:57;;;;;;;7.40;3.30;;;;;;;;;;4992399;28;20204;-44
2023/02/25 04:52:23;;;;;;;11.80;3.10;;;;;;;;;;4991453;28;20193;-44
2023/02/25 04:54:49;;;;;;;8.77;2.35;;;;;;;;;;4992224;28;20462;-44
2023/02/25 04:57:15;;;;;;;13.50;3.65;;;;;;;;;;4992168;28;20272;-44
2023/02/25 04:59:41;;;;;;;16.92;3.95;;;;;;;;;;4991938;28;20205;-44
2023/02/25 05:02:07;;;;;;;14.98;3.85;;;;;;;;;;4991203;28;20207;-44
2023/02/25 05:04:34;;;;;;;22.65;2.80;;;;;;;;;;4992120;28;20555;-44
2023/02/25 05:07:00;;;;;;;15.35;3.58;;;;;;;;;;4992266;28;20188;-44
2023/02/25 05:09:26;;;;;;;20.60;3.35;;;;;;;;;;4992129;28;20772;-44
2023/02/25 05:11:52;;;;;;;14.03;2.90;;;;;;;;;;4991623;28;20287;-45
2023/02/25 05:14:18;;;;;;;15.03;3.43;;;;;;;;;;4992462;28;20469;-44
2023/02/25 05:16:45;;;;;;;14.17;2.87;;;;;;;;;;4992426;28;20802;-45
2023/02/25 05:19:15;;;;;;;10.77;3.63;;;;;;;;;;4992221;28;20506;-45
2023/02/25 05:21:41;;;;;;;16.92;3.15;;;;;;;;;;4991713;28;20783;-45
2023/02/25 05:24:07;;;;;;;10.85;4.18;;;;;;;;;;4991997;28;20653;-42
2023/02/25 05:26:33;;;;;;;9.57;3.67;;;;;;;;;;4992302;28;20183;-44
2023/02/25 05:28:59;;;;;;;5.87;2.70;;;;;;;;;;4991892;28;20420;-44
2023/02/25 05:31:25;;;;;;;27.17;3.63;;;;;;;;;;4991169;28;20424;-42
2023/02/25 05:33:52;;;;;;;13.73;3.40;;;;;;;;;;4991223;28;20475;-44
2023/02/25 05:36:18;;;;;;;17.95;2.65;;;;;;;;;;4991911;28;20177;-44
2023/02/25 05:38:44;;;;;;;6.35;2.53;;;;;;;;;;4991593;28;20192;-42
2023/02/25 05:41:11;;;;;;;11.75;3.00;;;;;;;;;;4991096;28;20200;-43
2023/02/25 05:43:37;;;;;;;13.57;2.63;;;;;;;;;;4991692;28;20176;-43
2023/02/25 05:46:04;;;;;;;7.03;2.70;;;;;;;;;;4991693;28;20170;-42
2023/02/25 05:48:30;;;;;;;8.52;3.45;;;;;;;;;;4991753;28;20175;-42
2023/02/25 05:51:03;;;;;;;8.65;1.80;;;;;;;;;;4990883;28;20205;-46
2023/02/25 05:53:30;;;;;;;14.15;2.92;;;;;;;;;;4991442;28;20184;-43
2023/02/25 05:55:56;;;;;;;27.98;3.45;;;;;;;;;;4992001;28;20192;-43
2023/02/25 05:58:22;;;;;;;9.07;2.80;;;;;;;;;;4991627;28;20181;-42
2023/02/25 06:00:48;;;;;;;12.48;3.38;;;;;;;;;;4990864;28;20471;-43
2023/02/25 06:03:14;;;;;;;13.20;3.78;;;;;;;;;;4992260;28;20671;-42
2023/02/25 06:05:40;;;;;;;4.55;2.45;;;;;;;;;;4995328;28;20228;-43
2023/02/25 06:08:07;;;;;;;15.23;3.47;;;;;;;;;;4995102;28;20237;-42
2023/02/25 06:10:37;;;;;;;14.48;3.00;;;;;;;;;;4994630;28;20205;-43
2023/02/25 06:13:03;;;;;;;8.98;2.55;;;;;;;;;;4994939;28;20273;-43
2023/02/25 06:15:29;;;;;;;8.35;2.85;;;;;;;;;;4993508;28;20184;-42
2023/02/25 06:17:55;;;;;;;9.60;2.10;;;;;;;;;;4993008;28;20187;-43
2023/02/25 06:20:24;;;;;;;10.60;2.53;;;;;;;;;;4991666;28;20558;-44
2023/02/25 06:22:50;;;;;;;13.13;3.05;;;;;;;;;;4994188;28;20970;-44
2023/02/25 06:25:16;;;;;;;11.07;2.55;;;;;;;;;;4994986;28;20169;-44
2023/02/25 06:27:42;;;;;;;9.07;2.00;;;;;;;;;;4994888;28;20592;-44
2023/02/25 06:30:08;;;;;;;14.93;2.95;;;;;;;;;;4994322;28;20181;-44
2023/02/25 06:32:34;;;;;;;15.18;3.55;;;;;;;;;;4994491;28;20295;-43
2023/02/25 06:35:00;;;;;;;18.07;2.70;;;;;;;;;;4994634;28;20259;-44
2023/02/25 06:37:26;;;;;;;16.73;2.97;;;;;;;;;;4989056;28;20436;-43
2023/02/25 06:39:52;;;;;;;10.13;2.63;;;;;;;;;;4993807;28;20459;-44
2023/02/25 06:42:22;;;;;;;9.75;3.70;;;;;;;;;;4993822;28;20345;-44
2023/02/25 06:44:48;;;;;;;22.40;3.20;;;;;;;;;;4998032;28;20173;-44
2023/02/25 06:47:14;;;;;;;7.03;2.40;;;;;;;;;;4994943;28;20257;-45
2023/02/25 06:49:40;;;;;;;17.73;3.25;;;;;;;;;;4993875;28;20419;-46
2023/02/25 06:52:06;;;;;;;13.55;3.33;;;;;;;;;;4994267;28;20212;-45
2023/02/25 06:54:32;;;;;;;10.03;3.43;;;;;;;;;;4995186;28;20195;-45
2023/02/25 06:56:59;;;;;;;7.70;2.40;;;;;;;;;;4994613;28;20977;-45
2023/02/25 06:59:25;;;;;;;15.57;2.97;;;;;;;;;;4994559;28;20600;-45
2023/02/25 07:01:51;;;;;;;10.48;4.07;;;;;;;;;;4993865;28;20205;-45
2023/02/25 07:04:24;;;;;;;16.20;3.60;;;;;;;;;;4994421;28;20180;-46
2023/02/25 07:06:50;;;;;;;7.60;2.40;;;;;;;;;;4992387;28;20892;-45
2023/02/25 07:09:16;;;;;;;11.17;2.33;;;;;;;;;;4994253;28;20191;-44
2023/02/25 07:11:42;;;;;;;4.80;2.53;;;;;;;;;;4993939;28;20697;-45
2023/02/25 07:14:08;;;;;;;16.00;3.37;;;;;;;;;;4994102;28;20448;-45
2023/02/25 07:16:34;;;;;;;9.87;2.60;;;;;;;;;;4993672;28;20462;-45
2023/02/25 07:19:03;;;;;;;6.10;2.45;;;;;;;;;;4993574;28;20464;-45
2023/02/25 07:21:30;;;;;;;10.77;2.20;;;;;;;;;;4993451;28;20247;-45
2023/02/25 07:23:57;;;;;;;18.60;3.28;;;;;;;;;;4994011;28;20176;-45
2023/02/25 07:26:27;;;;;;;18.27;3.03;;;;;;;;;;4994357;28;20203;-46
2023/02/25 07:28:53;;;;;;;17.02;3.20;;;;;;;;;;4993960;28;20185;-45
2023/02/25 07:31:20;;;;;;;8.40;2.70;;;;;;;;;;4993167;28;20194;-45
2023/02/25 07:33:47;;;;;;;6.97;2.30;;;;;;;;;;4993730;28;20211;-44
2023/02/25 07:36:13;;;;;;;8.68;2.55;;;;;;;;;;4994121;28;20196;-45
2023/02/25 07:38:39;;;;;;;12.35;2.83;;;;;;;;;;4993537;28;20712;-45
2023/02/25 07:41:14;;;;;;;19.67;3.60;;;;;;;;;;4993216;28;20236;-45
2023/02/25 07:43:40;;;;;;;21.38;3.63;;;;;;;;;;4993778;28;20404;-46
2023/02/25 07:46:07;;;;;;;10.38;2.55;;;;;;;;;;4993567;28;20184;-45
2023/02/25 07:48:33;;;;;;;6.78;2.15;;;;;;;;;;4993610;28;20184;-45
2023/02/25 07:51:17;;;;;;;10.15;3.05;;;;;;;;;;4993033;28;20213;-46
2023/02/25 07:53:43;;;;;;;7.80;2.63;;;;;;;;;;4993501;28;20176;-44
2023/02/25 07:56:09;;;;;;;8.85;4.10;;;;;;;;;;4993669;28;20192;-46
2023/02/25 07:58:36;;;;;;;14.07;3.80;;;;;;;;;;4997486;28;20280;-45
2023/02/25 08:01:07;;;;;;;18.13;3.90;;;;;;;;;;4992737;28;20224;-45
2023/02/25 08:03:33;;;;;;;6.68;2.67;;;;;;;;;;4993160;28;20184;-45
2023/02/25 08:06:01;;;;;;;11.93;3.20;;;;;;;;;;4993437;28;20746;-45
2023/02/25 08:08:27;;;;;;;12.52;3.03;;;;;;;;;;4993902;28;20435;-45
2023/02/25 08:10:54;;;;;;;16.67;4.30;;;;;;;;;;4992456;28;20271;-45
2023/02/25 08:13:19;;;;;;;6.60;4.07;;;;;;;;;;4992931;28;20232;-45
2023/02/25 08:15:45;;;;;;;15.53;3.13;;;;;;;;;;4993037;28;20196;-45
2023/02/25 08:18:11;;;;;;;13.30;3.50;;;;;;;;;;4993026;28;20419;-45
2023/02/25 08:20:39;;;;;;;12.33;2.30;;;;;;;;;;4992090;28;20471;-45
2023/02/25 08:23:05;;;;;;;8.45;3.10;;;;;;;;;;4992639;28;20974;-46
2023/02/25 08:25:31;;;;;;;10.00;3.50;;;;;;;;;;4992520;28;20177;-47
2023/02/25 08:27:57;;;;;;;17.17;3.10;;;;;;;;;;4992506;28;20427;-46
2023/02/25 08:30:23;;;;;;;7.80;3.40;;;;;;;;;;4991775;28;20189;-46
2023/02/25 08:32:49;;;;;;;6.07;3.37;;;;;;;;;;4992498;28;20416;-45
2023/02/25 08:35:15;;;;;;;7.50;3.60;;;;;;;;;;4992732;28;20934;-46
2023/02/25 08:37:43;;;;;;;9.25;2.67;;;;;;;;;;4992539;28;20416;-45
2023/02/25 08:40:10;;;;;;;9.90;2.80;;;;;;;;;;4984409;28;20200;-47
2023/02/25 08:42:36;;;;;;;10.63;3.20;;;;;;;;;;4992542;28;20229;-45
2023/02/25 08:45:03;;;;;;;8.05;2.72;;;;;;;;;;4992293;28;20648;-45
2023/02/25 08:47:29;;;;;;;13.85;3.17;;;;;;;;;;4992613;28;20181;-45
2023/02/25 08:49:55;;;;;;;10.10;3.63;;;;;;;;;;4992367;28;20531;-46
2023/02/25 08:52:20;;;;;;;9.13;2.70;;;;;;;;;;4991783;28;20600;-44
2023/02/25 08:54:46;;;;;;;15.53;3.50;;;;;;;;;;4991816;28;20427;-45
2023/02/25 08:57:12;;;;;;;14.53;3.73;;;;;;;;;;4992129;28;20423;-45
2023/02/25 08:59:39;;;;;;;8.43;2.87;;;;;;;;;;4992240;28;20463;-45
2023/02/25 09:02:07;;;;;;;7.80;3.33;;;;;;;;;;4991446;28;20567;-45
2023/02/25 09:04:33;;;;;;;9.38;2.58;;;;;;;;;;4992081;28;20260;-45
2023/02/25 09:07:02;;;;;;;13.63;5.43;;;;;;;;;;4992218;28;20181;-45
2023/02/25 09:09:28;;;;;;;15.55;3.75;;;;;;;;;;4992381;28;20272;-47
2023/02/25 09:11:55;;;;;;;6.30;2.85;;;;;;;;;;4990167;28;20197;-45
2023/02/25 09:14:21;;;;;;;6.47;2.67;;;;;;;;;;4987718;28;20411;-45
2023/02/25 09:16:48;;;;;;;12.83;2.67;;;;;;;;;;4992211;28;20256;-45
2023/02/25 09:19:16;;;;;;;10.73;2.95;;;;;;;;;;4991560;28;20463;-44
2023/02/25 09:21:42;;;;;;;9.20;2.58;;;;;;;;;;4991083;28;20315;-43
2023/02/25 09:24:08;;;;;;;12.68;2.72;;;;;;;;;;4991875;28;20206;-43
2023/02/25 09:26:34;;;;;;;7.93;1.92;;;;;;;;;;4992305;28;20177;-42
2023/02/25 09:29:01;;;;;;;4.23;1.97;;;;;;;;;;4991608;28;20187;-43
2023/02/25 09:31:27;;;;;;;13.20;2.88;;;;;;;;;;4991101;28;20440;-42
2023/02/25 09:33:53;;;;;;;15.03;2.87;;;;;;;;;;4991568;28;20197;-42
2023/02/25 09:36:20;;;;;;;3.95;2.40;;;;;;;;;;4991722;28;20470;-42
2023/02/25 09:38:47;;;;;;;9.48;2.15;;;;;;;;;;4993147;28;20181;-42
2023/02/25 09:41:19;;;;;;;7.88;3.22;;;;;;;;;;4992855;28;20583;-43
2023/02/25 09:43:45;;;;;;;3.63;1.92;;;;;;;;;;4992492;28;20172;-42
2023/02/25 09:46:12;;;;;;;2.33;1.98;;;;;;;;;;4995413;28;20664;-46
2023/02/25 09:48:44;;;;;;;3.50;1.80;;;;;;;;;;4994238;28;20541;-46
2023/02/25 09:51:18;;;;;;;6.72;2.17;;;;;;;;;;4987205;28;20931;-46
2023/02/25 09:53:47;;;;;;;6.72;2.58;;;;;;;;;;4994620;28;20227;-44
2023/02/25 09:56:14;;;;;;;2.47;1.70;;;;;;;;;;4995000;28;20556;-47
2023/02/25 09:58:42;;;;;;;6.70;2.00;;;;;;;;;;4994312;28;20447;-45
2023/02/25 10:01:10;;;;;;;5.53;2.33;;;;;;;;;;4994788;28;20472;-47
2023/02/25 10:03:55;;;;;;;7.30;2.10;;;;;;;;;;4995520;28;20182;-45
2023/02/25 10:06:38;;;;;;;7.37;1.80;;;;;;;;;;4989438;28;20444;-47
2023/02/25 10:12:26;;;;;;;10.53;2.10;;;;;;;;;;4994873;28;20480;-46
2023/02/25 10:14:52;;;;;;;5.17;2.27;;;;;;;;;;4995220;28;20919;-46
2023/02/25 10:17:23;;;;;;;4.63;1.67;;;;;;;;;;4998588;28;20422;-46
2023/02/25 10:19:59;;;;;;;5.80;1.93;;;;;;;;;;4995297;28;20465;-48
2023/02/25 10:22:43;;;;;;;4.60;1.70;;;;;;;;;;4994965;28;20484;-47
2023/02/25 10:25:12;;;;;;;13.67;2.23;;;;;;;;;;4991480;28;20432;-46
2023/02/25 10:27:46;;;;;;;5.83;2.03;;;;;;;;;;4994756;28;20413;-46
2023/02/25 10:30:26;;;;;;;5.43;1.93;;;;;;;;;;4986555;28;20405;-47
2023/02/25 10:32:53;;;;;;;6.63;1.70;;;;;;;;;;4994071;28;20428;-45
2023/02/25 10:35:25;;;;;;;1.70;1.30;;;;;;;;;;4994661;28;20184;-45
2023/02/25 10:37:51;;;;;;;7.00;2.03;;;;;;;;;;4994670;28;20180;-47
2023/02/25 10:40:18;;;;;;;5.80;1.92;;;;;;;;;;4993765;28;20220;-47
2023/02/25 10:42:46;;;;;;;8.15;2.00;;;;;;;;;;4995083;28;20649;-46
2023/02/25 10:45:13;;;;;;;6.20;2.00;;;;;;;;;;4987810;28;20200;-47
2023/02/25 10:47:40;;;;;;;2.70;1.40;;;;;;;;;;4995526;28;20182;-47
2023/02/25 10:50:26;;;;;;;1.80;1.13;;;;;;;;;;4994327;28;20488;-47
2023/02/25 10:52:53;;;;;;;1.70;1.60;;;;;;;;;;4995399;28;20474;-47
2023/02/25 10:55:38;;;;;;;4.10;1.27;;;;;;;;;;4995326;28;20455;-45
2023/02/25 10:58:04;;;;;;;1.70;1.60;;;;;;;;;;4995243;28;20429;-48
2023/02/25 11:00:31;;;;;;;1.60;1.07;;;;;;;;;;4994195;28;20882;-45
2023/02/25 11:03:00;;;;;;;4.70;1.23;;;;;;;;;;4995101;28;20422;-45
2023/02/25 11:05:35;;;;;;;6.50;1.90;;;;;;;;;;4995019;28;20893;-47
2023/02/25 11:08:01;;;;;;;6.80;2.10;;;;;;;;;;4994479;28;20409;-46
2023/02/25 11:10:27;;;;;;;4.33;2.47;;;;;;;;;;4994061;28;20474;-47
2023/02/25 11:12:57;;;;;;;4.47;1.60;;;;;;;;;;4994537;28;20419;-45
2023/02/25 11:15:23;;;;;;;5.40;1.67;;;;;;;;;;4994469;28;20427;-45
2023/02/25 11:17:49;;;;;;;7.00;1.30;;;;;;;;;;4994394;28;20422;-46
2023/02/25 11:20:22;;;;;;;3.13;1.70;;;;;;;;;;4990935;28;20824;-43
2023/02/25 11:22:50;;;;;;;4.20;2.70;;;;;;;;;;4991183;28;20915;-44
2023/02/25 11:25:18;;;;;;;4.03;1.63;;;;;;;;;;4993497;28;20406;-43
2023/02/25 11:27:48;;;;;;;4.83;1.83;;;;;;;;;;4993320;28;20404;-44
2023/02/25 11:30:16;;;;;;;3.37;1.40;;;;;;;;;;4992813;28;20419;-44
2023/02/25 11:32:43;;;;;;;3.07;1.97;;;;;;;;;;4993575;28;20417;-44
2023/02/25 11:35:17;;;;;;;2.87;1.33;;;;;;;;;;4993253;28;20423;-43
2023/02/25 11:37:46;;;;;;;2.70;1.50;;;;;;;;;;4993818;28;20432;-45
2023/02/25 11:40:29;;;;;;;3.57;1.73;;;;;;;;;;4992283;28;20463;-44
2023/02/25 11:43:01;;;;;;;6.33;1.80;;;;;;;;;;4993261;28;20596;-44
2023/02/25 11:45:29;;;;;;;9.50;1.97;;;;;;;;;;4993162;28;20911;-43
2023/02/25 11:47:55;;;;;;;7.33;2.07;;;;;;;;;;4993099;28;20466;-44
2023/02/25 11:50:30;;;;;;;4.33;1.80;;;;;;;;;;4992282;28;20424;-44
2023/02/25 11:53:02;;;;;;;6.40;2.17;;;;;;;;;;4992961;28;20411;-44
2023/02/25 11:55:47;;;;;;;4.20;1.97;;;;;;;;;;4993084;28;20422;-44
2023/02/25 11:58:13;;;;;;;5.33;1.90;;;;;;;;;;4993242;28;20448;-44
2023/02/25 12:00:48;;;;;;;4.63;2.00;;;;;;;;;;4989829;28;20562;-44
2023/02/25 12:03:23;;;;;;;9.13;2.63;;;;;;;;;;4992705;28;20415;-44
2023/02/25 12:05:49;;;;;;;6.93;2.50;;;;;;;;;;4992791;28;20507;-43
2023/02/25 12:08:21;;;;;;;7.50;2.17;;;;;;;;;;4992819;28;20573;-43
2023/02/25 12:11:06;;;;;;;9.93;2.50;;;;;;;;;;4992628;28;20454;-44
2023/02/25 12:13:41;;;;;;;2.30;1.67;;;;;;;;;;4992228;28;20929;-43
2023/02/25 12:16:26;;;;;;;9.27;2.90;;;;;;;;;;4992703;28;20426;-43
2023/02/25 12:18:58;;;;;;;3.70;2.00;;;;;;;;;;4992257;28;20440;-43
2023/02/25 12:21:30;;;;;;;6.07;2.23;;;;;;;;;;4991763;28;20492;-43
2023/02/25 12:23:56;;;;;;;4.43;2.33;;;;;;;;;;4992211;28;20430;-45
2023/02/25 12:26:40;;;;;;;2.00;1.80;;;;;;;;;;4993174;28;20852;-47
2023/02/25 12:29:25;;;;;;;6.10;1.70;;;;;;;;;;4993091;28;20454;-47
2023/02/25 12:32:09;;;;;;;5.80;1.90;;;;;;;;;;4990200;28;20467;-47
2023/02/25 12:34:50;;;;;;;3.13;1.77;;;;;;;;;;4988305;28;20429;-45
2023/02/25 12:37:19;;;;;;;3.00;1.33;;;;;;;;;;4985975;28;20501;-44
2023/02/25 12:40:00;;;;;;;3.50;1.60;;;;;;;;;;4991993;28;20493;-44
2023/02/25 12:42:44;;;;;;;3.37;2.20;;;;;;;;;;4991609;28;20443;-44
2023/02/25 12:45:29;;;;;;;5.60;1.53;;;;;;;;;;4987719;28;20430;-43
2023/02/25 12:47:56;;;;;;;8.03;2.80;;;;;;;;;;4989007;28;20418;-42
2023/02/25 12:50:22;;;;;;;2.47;1.80;;;;;;;;;;4988346;28;20465;-42
2023/02/25 12:52:48;;;;;;;4.33;1.90;;;;;;;;;;4990012;28;20511;-42
2023/02/25 12:55:20;;;;;;;3.00;2.33;;;;;;;;;;4990750;28;20431;-42
2023/02/25 12:57:50;;;;;;;8.13;2.03;;;;;;;;;;4990509;28;20777;-42
2023/02/25 13:00:28;;;;;;;4.47;1.53;;;;;;;;;;4990016;28;20468;-43
2023/02/25 13:03:14;;;;;;;3.00;2.07;;;;;;;;;;4991432;28;20410;-43
2023/02/25 13:05:40;;;;;;;2.50;1.77;;;;;;;;;;4991844;28;20898;-43
2023/02/25 13:08:17;;;;;;;4.77;1.90;;;;;;;;;;4991801;28;20404;-43
2023/02/25 13:10:53;;;;;;;4.50;2.07;;;;;;;;;;4991210;28;20489;-42
2023/02/25 13:13:34;;;;;;;2.03;1.57;;;;;;;;;;4992943;28;20418;-42
2023/02/25 13:16:15;;;;;;;5.20;2.47;;;;;;;;;;4995772;28;20490;-42
2023/02/25 13:19:00;;;;;;;4.50;1.70;;;;;;;;;;4997309;28;20426;-44
2023/02/25 13:21:44;;;;;;;2.70;1.50;;;;;;;;;;4993480;28;20921;-44
2023/02/25 13:24:23;;;;;;;4.00;1.40;;;;;;;;;;4989305;28;20503;-44
2023/02/25 13:27:19;;;;;;;2.13;1.87;;;;;;;;;;4995346;28;20754;-44
2023/02/25 13:29:45;;;;;;;3.00;1.50;;;;;;;;;;4993301;28;20829;-44
2023/02/25 13:32:10;;;;;;;3.70;1.90;;;;;;;;;;4993294;28;20439;-44
2023/02/25 13:34:55;;;;;;;3.50;1.50;;;;;;;;;;4992857;28;20452;-44
2023/02/25 13:37:24;;;;;;;3.70;1.73;;;;;;;;;;4992209;28;20443;-44
2023/02/25 13:40:05;;;;;;;2.80;2.03;;;;;;;;;;4990831;28;20451;-44
2023/02/25 13:42:34;;;;;;;3.20;1.70;;;;;;;;;;4992708;28;20451;-44
2023/02/25 13:45:18;;;;;;;3.37;1.57;;;;;;;;;;4994121;28;20410;-44
2023/02/25 13:47:47;;;;;;;2.30;1.53;;;;;;;;;;4993617;28;20777;-44
2023/02/25 13:50:31;;;;;;;2.67;1.40;;;;;;;;;;4993430;28;20412;-44
2023/02/25 13:53:23;;;;;;;1.87;1.30;;;;;;;;;;4993156;28;20414;-44
2023/02/25 13:56:07;;;;;;;2.60;1.00;;;;;;;;;;4991724;28;20450;-44
2023/02/25 13:58:33;;;;;;;1.47;1.37;;;;;;;;;;4990540;28;20552;-44
2023/02/25 14:01:11;;;;;;;1.00;0.90;;;;;;;;;;4994120;28;20562;-44
2023/02/25 14:04:03;;;;;;;2.43;1.40;;;;;;;;;;4994219;28;20883;-44
2023/02/25 14:06:48;;;;;;;1.83;1.13;;;;;;;;;;4976360;28;20434;-44
2023/02/25 14:09:18;;;;;;;1.83;1.50;;;;;;;;;;4991867;28;20421;-44
2023/02/25 14:11:52;;;;;;;4.70;2.10;;;;;;;;;;4994604;28;20510;-43
2023/02/25 14:14:37;;;;;;;6.27;1.50;;;;;;;;;;4994758;28;20387;-43
2023/02/25 14:17:13;;;;;;;1.17;1.00;;;;;;;;;;4995048;28;20423;-42
2023/02/25 14:20:05;;;;;;;3.27;1.30;;;;;;;;;;4994877;28;20474;-42
2023/02/25 14:22:34;;;;;;;1.10;0.90;;;;;;;;;;4988900;28;20442;-43
2023/02/25 14:25:22;;;;;;;3.87;1.43;;;;;;;;;;4993527;28;20893;-42
2023/02/25 14:27:59;;;;;;;3.83;0.90;;;;;;;;;;4994774;28;20459;-42
2023/02/25 14:30:34;;;;;;;2.00;1.57;;;;;;;;;;4992717;28;20893;-42
2023/02/25 14:33:07;;;;;;;4.07;1.70;;;;;;;;;;4994090;28;20429;-42
2023/02/25 14:35:39;;;;;;;1.80;1.00;;;;;;;;;;4994572;28;20958;-42
2023/02/25 14:38:08;;;;;;;2.70;1.23;;;;;;;;;;4994274;28;20884;-42
2023/02/25 14:40:34;;;;;;;2.80;1.27;;;;;;;;;;4994046;28;20469;-43
2023/02/25 14:43:10;;;;;;;4.73;1.30;;;;;;;;;;4993848;28;20424;-42
2023/02/25 14:45:39;;;;;;;1.83;1.20;;;;;;;;;;4993519;28;20408;-44
2023/02/25 14:48:10;;;;;;;0.90;0.80;;;;;;;;;;4993622;28;20419;-44
2023/02/25 14:50:45;;;;;;;1.27;1.10;;;;;;;;;;4993503;28;20475;-42
2023/02/25 14:53:24;;;;;;;4.30;1.13;;;;;;;;;;4986482;28;20484;-43
2023/02/25 14:56:09;;;;;;;1.20;1.10;;;;;;;;;;4993942;28;20492;-43
2023/02/25 14:58:40;;;;;;;3.27;1.60;;;;;;;;;;4994201;28;20954;-42